Terminal Aerodrome Forecast
Issued by NWS

Home | Current Version | Previous Version | Graphics & Text | Print | Product List | Glossary On
Versions: 1 2 3 4 5 6 7 8 9 10 11 12 13 14 15 16 17 18 19 20 21 22 23 24 25 26 27 28
000
FTUS43 KLOT 281508 AAA
TAFMDW
TAF AMD
KMDW 281508Z 2815/2912 07007KT P6SM SCT030 SCT250
     FM290300 08003KT P6SM SCT250
     FM290700 09003KT 6SM BR FEW006 SCT250=

USA.gov is the U.S. government's official web portal to all federal, state and local government web resources and services.